Flight Track Log - Related Links

Times and Time Zones

All times are in EDT time to prevent confusion due to time zone crossing. See the SKW2969 flight status page for this flight to view local times or setup timezone preferences in your user account.

Time Position Orientation Groundspeed Altitude Reporting Facility
EDT Latitude Longitude Course Direction KTS MPH feet Rate Location/Type
Thu 08:01:21 PM 33.4333 -112.0333 250° West 174 200 2,100  Level Phoenix TRACON
Thu 08:01:47 PM 33.4269 -112.0542 250° West 174 200 2,500 1,448 Climbing Albuquerque Center
Thu 08:02:48 PM 33.4089 -112.1264 253° West 216 249 4,200 2,000 Climbing Albuquerque Center
Thu 08:03:50 PM 33.3881 -112.2147 254° West 260 299 6,600 2,488 Climbing Albuquerque Center
Thu 08:04:51 PM 33.3956 -112.3069 276° West 287 330 9,300 2,439 Climbing Albuquerque Center
Thu 08:05:53 PM 33.4094 -112.4250 278° West 295 339 11,600 2,129 Climbing Albuquerque Center
Thu 08:06:55 PM 33.4200 -112.5319 277° West 312 359 13,700 2,098 Climbing Albuquerque Center
Thu 08:07:56 PM 33.4342 -112.6467 278° West 326 375 15,900 2,000 Climbing Albuquerque Center
Thu 08:08:58 PM 33.4461 -112.7589 277° West 336 387 17,800 1,790 Climbing Albuquerque Center
Thu 08:10:00 PM 33.4617 -112.8714 279° West 342 394 19,600 1,610 Climbing Albuquerque Center
Thu 08:11:01 PM 33.4850 -112.9858 284° West 351 404 21,100 1,463 Climbing Albuquerque Center
Thu 08:12:03 PM 33.5064 -113.1014 283° West 355 409 22,600 1,306 Climbing Albuquerque Center
Thu 08:13:05 PM 33.5264 -113.2189 282° West 361 415 23,800 1,210 Climbing Albuquerque Center
Thu 08:14:07 PM 33.5328 -113.3656 273° West 367 422 25,100 1,171 Climbing Albuquerque Center
Thu 08:15:08 PM 33.5461 -113.4886 277° West 372 428 26,200 927 Climbing Albuquerque Center
Thu 08:16:10 PM 33.5614 -113.6128 278° West 377 434 27,000 829 Climbing Albuquerque Center
Thu 08:17:11 PM 33.5792 -113.7378 280° West 381 438 27,900 488 Climbing Albuquerque Center
Thu 08:18:13 PM 33.5981 -113.8678 280° West 391 450 28,000 48 Climbing Albuquerque Center
Thu 08:19:15 PM 33.6178 -114.0003 280° West 399 459 28,000  Level Albuquerque Center
Thu 08:20:17 PM 33.6536 -114.1328 288° West 405 466 28,000  Level Albuquerque Center
Thu 08:21:18 PM 33.7053 -114.2956 291° West 419 482 28,000 488 Level Albuquerque Center
Thu 08:22:20 PM 33.7400 -114.4283 287° West 420 483 29,000 975 Climbing Albuquerque Center
Thu 08:22:38 PM 33.7514 -114.4614 293° West 416 479 29,300 750 Climbing Los Angeles Center
Thu 08:23:40 PM 33.7844 -114.5892 287° West 406 467 30,000 339 Climbing Los Angeles Center
Thu 08:24:42 PM 33.8128 -114.6947 288° West 411 473 30,000  Level Los Angeles Center
Thu 08:25:44 PM 33.8603 -114.8853 287° West 426 490 30,000 -48 Level Los Angeles Center
Thu 08:26:46 PM 33.8958 -115.0203 288° West 425 489 29,900  Descending Los Angeles Center
Thu 08:27:49 PM 33.9292 -115.1547 287° West 423 487 30,000 48 Climbing Los Angeles Center
Thu 08:28:51 PM 33.9633 -115.2892 287° West 421 484 30,000  Level Los Angeles Center
Thu 08:29:53 PM 33.9978 -115.4242 287° West 424 488 30,000  Level Los Angeles Center
Thu 08:30:55 PM 34.0322 -115.5558 288° West 417 480 30,000  Level Los Angeles Center
Thu 08:31:57 PM 34.0708 -115.7153 286° West 415 478 30,000  Level Los Angeles Center
Thu 08:32:59 PM 34.1033 -115.8464 287° West 412 474 30,000  Level Los Angeles Center
Thu 08:34:01 PM 34.1367 -115.9806 287° West 410 472 30,000  Level Los Angeles Center
Thu 08:35:03 PM 34.1697 -116.1117 287° West 410 472 30,000  Level Los Angeles Center
Thu 08:36:05 PM 34.2017 -116.2444 286° West 411 473 30,000  Level Los Angeles Center
Thu 08:37:07 PM 34.2342 -116.3792 286° West 416 479 30,000  Level Los Angeles Center
Thu 08:38:11 PM 34.2658 -116.5136 286° West 418 481 30,000  Level Los Angeles Center
Thu 08:39:12 PM 34.3067 -116.6731 287° West 414 476 30,000  Level Los Angeles Center
Thu 08:40:14 PM 34.3392 -116.8081 286° West 417 480 30,000  Level Los Angeles Center
Thu 08:41:16 PM 34.3711 -116.9442 286° West 420 483 30,000  Level Los Angeles Center
Thu 08:42:18 PM 34.4036 -117.0800 286° West 420 483 30,000  Level Los Angeles Center
Thu 08:43:20 PM 34.4356 -117.2167 286° West 421 484 30,000  Level Los Angeles Center
Thu 08:44:22 PM 34.4669 -117.3531 286° West 419 482 30,000 -1,210 Level Los Angeles Center
Thu 08:45:24 PM 34.5183 -117.5072 292° West 409 471 27,500 -2,419 Descending Los Angeles Center
Thu 08:46:26 PM 34.5764 -117.6161 303° West 387 445 25,000 -2,032 Descending Los Angeles Center
Thu 08:47:28 PM 34.6336 -117.7269 302° West 386 444 23,300 -1,694 Descending Los Angeles Center
Thu 08:48:30 PM 34.6914 -117.8400 302° West 392 451 21,500 -1,597 Descending Los Angeles Center
Thu 08:49:32 PM 34.7519 -117.9572 302° West 404 465 20,000 -871 Descending Los Angeles Center
Thu 08:50:34 PM 34.8083 -118.0672 302° West 385 443 19,700 -1,065 Descending Los Angeles Center
Thu 08:51:36 PM 34.8625 -118.1719 302° West 369 425 17,800 -1,920 Descending Los Angeles Center
Thu 08:52:39 PM 34.9231 -118.2922 302° West 351 404 15,700 -1,824 Descending Los Angeles Center
Thu 08:53:41 PM 34.9725 -118.3892 302° West 340 391 14,000 -1,355 Descending Los Angeles Center
Thu 08:54:43 PM 35.0228 -118.4875 302° West 334 384 12,900 -1,597 Descending Los Angeles Center
Thu 08:55:45 PM 35.0694 -118.5783 302° West 321 369 10,700 -1,452 Descending Los Angeles Center
Thu 08:56:47 PM 35.1139 -118.6661 302° West 310 357 9,900 -878 Descending Los Angeles Center
Thu 08:57:48 PM 35.1636 -118.7331 312° West 279 321 8,900 -439 Descending Los Angeles Center
Thu 08:58:50 PM 35.2189 -118.7950 318° Northwest 273 314 9,000 -290 Climbing Los Angeles Center
Thu 08:59:52 PM 35.2753 -118.8600 317° Northwest 245 282 8,300 -1,500 Descending Los Angeles Center
Thu 09:00:54 PM 35.3147 -118.9131 312° West 222 255 5,900 -2,323 Descending Los Angeles Center
Thu 09:02:00 PM 35.3916 -119.0082 321° Northwest  Level FlightAware Approximate
Thu 09:09:00 PM 35.4333 -119.0500 321° Northwest  Level FlightAware Approximate

Login

Don't have an account? Register now (free) for customized features, flight alerts, and more!